createdAt,value
2018-09-29T00:00:46.828Z,14.30
2018-09-29T00:04:50.625Z,8.07
2018-09-29T00:08:54.428Z,29.23
2018-09-29T00:12:58.364Z,14.07
2018-09-29T00:17:02.042Z,13.63
2018-09-29T00:21:05.773Z,6.27
2018-09-29T00:25:09.520Z,13.97
2018-09-29T00:29:13.204Z,9.73
2018-09-29T00:33:16.933Z,5.77
2018-09-29T00:37:20.590Z,5.27
2018-09-29T00:41:24.288Z,11.67
2018-09-29T00:45:28.036Z,11.70
2018-09-29T00:49:31.728Z,8.43
2018-09-29T00:53:35.529Z,7.90
2018-09-29T00:57:39.194Z,7.50
2018-09-29T01:01:42.865Z,4.60
2018-09-29T01:05:46.548Z,8.77
2018-09-29T01:09:50.333Z,11.00
2018-09-29T01:13:54.025Z,9.50
2018-09-29T01:17:57.698Z,10.97
2018-09-29T01:22:01.408Z,5.13
2018-09-29T01:26:05.253Z,6.33
2018-09-29T01:30:08.979Z,3.87
2018-09-29T01:34:12.716Z,7.40
2018-09-29T01:38:17.228Z,8.80
2018-09-29T01:42:20.901Z,6.20
2018-09-29T01:46:24.613Z,4.57
2018-09-29T01:50:28.324Z,8.97
2018-09-29T01:54:32.008Z,5.47
2018-09-29T01:58:35.682Z,5.47
2018-09-29T02:02:39.401Z,6.30
2018-09-29T02:06:43.129Z,8.53
2018-09-29T02:10:46.909Z,6.00
2018-09-29T02:14:50.649Z,7.00
2018-09-29T02:18:54.321Z,5.53
2018-09-29T02:22:58.017Z,10.40
2018-09-29T02:27:01.812Z,5.70
2018-09-29T02:31:05.515Z,6.77
2018-09-29T02:35:09.342Z,7.17
2018-09-29T02:39:13.451Z,8.00
2018-09-29T02:43:17.175Z,6.27
2018-09-29T02:47:21.061Z,10.50
2018-09-29T02:51:24.749Z,8.27
2018-09-29T02:55:28.466Z,7.30
2018-09-29T02:59:32.194Z,5.53
2018-09-29T03:03:35.844Z,6.70
2018-09-29T03:07:39.618Z,6.47
2018-09-29T03:11:43.327Z,11.63
2018-09-29T03:15:47.059Z,12.37
2018-09-29T03:19:50.774Z,7.30
2018-09-29T03:23:54.457Z,7.33
2018-09-29T03:27:58.189Z,4.70
2018-09-29T03:32:01.981Z,4.50
2018-09-29T03:36:05.722Z,9.93
2018-09-29T03:40:09.413Z,5.00
2018-09-29T03:44:13.079Z,6.00
2018-09-29T03:48:16.764Z,4.57
2018-09-29T03:52:20.442Z,5.87
2018-09-29T03:56:24.153Z,14.10
2018-09-29T04:00:27.939Z,3.60
2018-09-29T04:04:31.609Z,4.83
2018-09-29T04:08:35.672Z,7.70
2018-09-29T04:12:39.489Z,4.30
2018-09-29T04:16:43.206Z,3.67
2018-09-29T04:20:46.902Z,6.67
2018-09-29T04:24:50.581Z,8.23
2018-09-29T04:28:54.445Z,6.63
2018-09-29T04:32:58.250Z,9.07
2018-09-29T04:37:01.967Z,6.03
2018-09-29T04:41:05.694Z,3.47
2018-09-29T04:45:09.377Z,6.57
2018-09-29T04:49:13.209Z,9.13
2018-09-29T04:53:16.875Z,8.23
2018-09-29T04:57:20.573Z,4.70
2018-09-29T05:01:24.293Z,7.60
2018-09-29T05:05:27.974Z,4.67
2018-09-29T05:09:31.674Z,7.97
2018-09-29T05:13:35.498Z,5.73
2018-09-29T05:17:39.217Z,10.40
2018-09-29T05:21:42.928Z,7.07
2018-09-29T05:25:46.730Z,7.10
2018-09-29T05:29:50.455Z,7.03
2018-09-29T05:33:54.205Z,3.03
2018-09-29T05:37:57.909Z,7.90
2018-09-29T05:42:01.610Z,7.27
2018-09-29T05:46:05.282Z,4.63
2018-09-29T05:50:09.428Z,6.93
2018-09-29T05:54:13.122Z,5.23
2018-09-29T05:58:16.813Z,4.07
2018-09-29T06:02:20.518Z,8.80
2018-09-29T06:06:24.226Z,12.90
2018-09-29T06:10:27.933Z,9.57
2018-09-29T06:14:31.645Z,14.57
2018-09-29T06:18:35.425Z,7.57
2018-09-29T06:22:39.137Z,6.27
2018-09-29T06:26:42.866Z,9.33
2018-09-29T06:30:46.702Z,8.53
2018-09-29T06:34:50.457Z,16.10
2018-09-29T06:38:54.186Z,20.03
2018-09-29T06:42:57.921Z,8.20
2018-09-29T06:47:01.577Z,9.67
2018-09-29T06:51:05.277Z,6.17
2018-09-29T06:55:08.990Z,11.00
2018-09-29T06:59:12.700Z,5.33
2018-09-29T07:03:16.367Z,9.17
2018-09-29T07:07:20.074Z,10.70
2018-09-29T07:11:23.817Z,12.07
2018-09-29T07:15:27.614Z,18.63
2018-09-29T07:19:31.371Z,11.87
2018-09-29T07:23:35.085Z,8.87
2018-09-29T07:27:38.797Z,8.90
2018-09-29T07:31:42.495Z,9.07
2018-09-29T07:35:46.245Z,10.03
2018-09-29T07:39:49.945Z,11.67
2018-09-29T07:43:53.620Z,13.30
2018-09-29T07:47:57.426Z,11.07
2018-09-29T07:52:01.136Z,10.83
2018-09-29T07:56:05.498Z,6.73
2018-09-29T08:00:09.233Z,10.87
2018-09-29T08:04:13.611Z,8.37
2018-09-29T08:08:17.427Z,7.17
2018-09-29T08:12:21.167Z,10.00
2018-09-29T08:16:25.489Z,18.50
2018-09-29T08:20:29.192Z,16.67
2018-09-29T08:24:32.997Z,10.77
2018-09-29T08:28:36.688Z,6.00
2018-09-29T08:32:40.527Z,7.73
2018-09-29T08:36:44.325Z,10.63
2018-09-29T08:40:48.021Z,9.47
2018-09-29T08:44:51.717Z,12.73
2018-09-29T08:48:55.432Z,16.90
2018-09-29T08:52:59.144Z,10.67
2018-09-29T08:57:02.865Z,11.27
2018-09-29T09:01:06.865Z,13.50
2018-09-29T09:05:10.557Z,9.37
2018-09-29T09:09:14.328Z,8.50
2018-09-29T09:13:18.022Z,10.97
2018-09-29T09:17:21.742Z,9.93
2018-09-29T09:21:25.467Z,13.03
2018-09-29T09:25:29.137Z,8.37
2018-09-29T09:29:32.836Z,7.07
2018-09-29T09:33:36.582Z,10.43
2018-09-29T09:37:42.334Z,12.00
2018-09-29T09:41:46.073Z,5.43
2018-09-29T09:45:49.906Z,9.03
2018-09-29T09:49:53.851Z,11.00
2018-09-29T09:53:57.565Z,7.50
2018-09-29T09:58:01.282Z,7.87
2018-09-29T10:02:10.151Z,8.73
2018-09-29T10:06:13.944Z,10.67
2018-09-29T10:10:17.662Z,8.50
2018-09-29T10:14:21.382Z,8.40
2018-09-29T10:18:25.112Z,8.00
2018-09-29T10:22:28.835Z,5.80
2018-09-29T10:26:32.658Z,5.60
2018-09-29T10:30:36.350Z,5.70
2018-09-29T10:34:40.090Z,12.50
2018-09-29T10:38:43.805Z,6.57
2018-09-29T10:42:47.517Z,7.00
2018-09-29T10:46:51.248Z,9.13
2018-09-29T10:50:54.962Z,7.00
2018-09-29T10:54:58.717Z,6.47
2018-09-29T10:59:02.523Z,7.47
2018-09-29T11:03:06.237Z,4.17
2018-09-29T11:07:10.098Z,6.30
2018-09-29T11:11:14.266Z,6.97
2018-09-29T11:15:18.033Z,14.93
2018-09-29T11:19:21.757Z,6.90
2018-09-29T11:23:25.480Z,2.57
2018-09-29T11:27:29.226Z,7.00
2018-09-29T11:31:32.941Z,6.03
2018-09-29T11:35:36.690Z,8.27
2018-09-29T11:39:40.557Z,4.87
2018-09-29T11:43:44.293Z,7.80
2018-09-29T11:47:48.258Z,6.23
2018-09-29T11:51:51.965Z,3.57
2018-09-29T11:55:55.682Z,5.50
2018-09-29T11:59:59.414Z,5.90
2018-09-29T12:04:03.205Z,6.20
2018-09-29T12:08:07.047Z,1.27
2018-09-29T12:12:10.770Z,7.20
2018-09-29T12:16:14.596Z,5.97
2018-09-29T12:20:18.333Z,6.70
2018-09-29T12:24:22.094Z,3.73
2018-09-29T12:28:25.837Z,8.77
2018-09-29T12:32:29.652Z,5.00
2018-09-29T12:36:33.362Z,5.23
2018-09-29T12:40:37.089Z,4.93
2018-09-29T12:44:41.004Z,3.83
2018-09-29T12:48:44.804Z,10.53
2018-09-29T12:52:48.487Z,5.47
2018-09-29T12:56:52.239Z,7.20
2018-09-29T13:00:56.095Z,13.60
2018-09-29T13:04:59.849Z,5.27
2018-09-29T13:09:05.249Z,6.97
2018-09-29T13:13:09.010Z,6.47
2018-09-29T13:17:12.727Z,8.97
2018-09-29T13:21:16.486Z,7.23
2018-09-29T13:25:20.215Z,2.40
2018-09-29T13:29:24.031Z,6.57
2018-09-29T13:33:27.770Z,5.63
2018-09-29T13:37:31.509Z,6.37
2018-09-29T13:41:35.312Z,2.47
2018-09-29T13:45:39.056Z,3.40
2018-09-29T13:49:42.773Z,4.83
2018-09-29T13:53:46.555Z,4.70
2018-09-29T13:57:50.266Z,2.63
2018-09-29T14:01:53.986Z,1.63
2018-09-29T14:05:57.720Z,4.73
2018-09-29T14:10:01.566Z,5.80
2018-09-29T14:14:05.977Z,4.37
2018-09-29T14:18:09.695Z,3.83
2018-09-29T14:22:13.463Z,3.57
2018-09-29T14:26:17.153Z,4.57
2018-09-29T14:30:20.900Z,3.17
2018-09-29T14:34:24.621Z,4.77
2018-09-29T14:38:28.365Z,2.67
2018-09-29T14:42:32.135Z,2.83
2018-09-29T14:46:35.917Z,4.10
2018-09-29T14:50:39.638Z,4.57
2018-09-29T14:54:43.409Z,1.60
2018-09-29T14:58:47.114Z,5.80
2018-09-29T15:02:50.830Z,2.33
2018-09-29T15:06:54.559Z,2.53
2018-09-29T15:10:58.312Z,4.87
2018-09-29T15:15:02.120Z,2.77
2018-09-29T15:19:05.936Z,5.13
2018-09-29T15:23:09.715Z,1.97
2018-09-29T15:27:13.447Z,2.67
2018-09-29T15:31:17.167Z,3.43
2018-09-29T15:35:20.905Z,5.20
2018-09-29T15:39:24.750Z,4.10
2018-09-29T15:43:28.486Z,3.07
2018-09-29T15:47:32.193Z,4.50
2018-09-29T15:51:36.357Z,3.53
2018-09-29T15:55:40.176Z,2.90
2018-09-29T15:59:43.953Z,2.67
2018-09-29T16:03:47.703Z,3.60
2018-09-29T16:07:51.468Z,4.47
2018-09-29T16:11:55.238Z,4.37
2018-09-29T16:15:58.961Z,4.40
2018-09-29T16:20:02.692Z,2.07
2018-09-29T16:24:06.460Z,5.63
2018-09-29T16:28:10.353Z,2.87
2018-09-29T16:32:14.112Z,4.93
2018-09-29T16:36:17.882Z,3.47
2018-09-29T16:40:21.698Z,3.97
2018-09-29T16:44:25.450Z,8.07
2018-09-29T16:48:29.228Z,5.13
2018-09-29T16:52:32.995Z,7.13
2018-09-29T16:56:36.785Z,4.20
2018-09-29T17:00:40.593Z,3.97
2018-09-29T17:04:44.446Z,3.40
2018-09-29T17:08:48.233Z,7.27
2018-09-29T17:12:52.009Z,4.20
2018-09-29T17:16:55.717Z,5.70
2018-09-29T17:20:59.800Z,3.60
2018-09-29T17:25:03.564Z,7.03
2018-09-29T17:29:07.340Z,7.17
2018-09-29T17:33:11.126Z,5.70
2018-09-29T17:37:14.886Z,4.07
2018-09-29T17:41:18.673Z,9.73
2018-09-29T17:45:22.494Z,10.23
2018-09-29T17:49:26.285Z,9.73
2018-09-29T17:53:30.129Z,10.40
2018-09-29T17:57:33.832Z,10.47
2018-09-29T18:01:37.725Z,16.53
2018-09-29T18:05:41.496Z,12.70
2018-09-29T18:09:46.919Z,7.50
2018-09-29T18:13:53.211Z,13.73
2018-09-29T18:17:58.921Z,10.60
2018-09-29T18:22:04.292Z,9.53
2018-09-29T18:26:09.975Z,12.50
2018-09-29T18:30:15.410Z,22.43
2018-09-29T18:34:21.610Z,26.50
2018-09-29T18:38:26.616Z,18.27
2018-09-29T18:42:31.341Z,25.70
2018-09-29T18:46:35.768Z,22.10
2018-09-29T18:50:39.626Z,16.97
2018-09-29T18:54:43.725Z,16.97
2018-09-29T18:58:49.246Z,19.67
2018-09-29T19:02:54.524Z,18.63
2018-09-29T19:07:00.024Z,10.43
2018-09-29T19:11:03.752Z,13.37
2018-09-29T19:15:07.667Z,29.73
2018-09-29T19:19:12.568Z,12.70
2018-09-29T19:23:16.356Z,11.37
2018-09-29T19:27:20.720Z,10.97
2018-09-29T19:31:24.462Z,7.27
2018-09-29T19:35:28.445Z,7.67
2018-09-29T19:39:32.247Z,7.13
2018-09-29T19:43:35.965Z,7.00
2018-09-29T19:47:39.682Z,7.47
2018-09-29T19:51:43.397Z,8.50
2018-09-29T19:55:47.108Z,6.70
2018-09-29T19:59:50.894Z,6.80
2018-09-29T20:03:54.614Z,4.03
2018-09-29T20:07:58.390Z,4.77
2018-09-29T20:12:02.214Z,6.67
2018-09-29T20:16:05.982Z,6.80
2018-09-29T20:20:09.702Z,8.67
2018-09-29T20:24:13.501Z,6.07
2018-09-29T20:28:17.193Z,3.90
2018-09-29T20:32:21.116Z,6.20
2018-09-29T20:36:24.842Z,6.07
2018-09-29T20:40:28.573Z,6.43
2018-09-29T20:44:32.241Z,4.00
2018-09-29T20:48:36.004Z,5.00
2018-09-29T20:52:39.726Z,4.97
2018-09-29T20:56:43.442Z,7.43
2018-09-29T21:00:47.229Z,5.27
2018-09-29T21:04:50.947Z,6.77
2018-09-29T21:08:54.702Z,5.57
2018-09-29T21:12:58.506Z,4.13
2018-09-29T21:17:02.168Z,5.63
2018-09-29T21:21:05.886Z,6.30
2018-09-29T21:25:09.622Z,7.13
2018-09-29T21:29:13.349Z,9.73
2018-09-29T21:33:17.102Z,10.57
2018-09-29T21:37:20.814Z,7.37
2018-09-29T21:41:24.628Z,7.70
2018-09-29T21:45:28.357Z,6.60
2018-09-29T21:49:32.182Z,6.00
2018-09-29T21:53:35.905Z,8.17
2018-09-29T21:57:39.636Z,6.73
2018-09-29T22:01:43.394Z,6.53
2018-09-29T22:05:47.167Z,6.60
2018-09-29T22:09:50.917Z,8.37
2018-09-29T22:13:55.119Z,5.03
2018-09-29T22:17:58.888Z,6.63
2018-09-29T22:22:02.629Z,4.67
2018-09-29T22:26:06.377Z,3.97
2018-09-29T22:30:10.143Z,3.60
2018-09-29T22:34:14.051Z,3.50
2018-09-29T22:38:17.849Z,6.73
2018-09-29T22:42:21.530Z,8.30
2018-09-29T22:46:25.240Z,5.63
2018-09-29T22:50:29.014Z,6.30
2018-09-29T22:54:32.758Z,5.63
2018-09-29T22:58:36.497Z,5.23
2018-09-29T23:02:40.205Z,4.33
2018-09-29T23:06:43.929Z,4.83
2018-09-29T23:10:47.794Z,7.37
2018-09-29T23:14:51.533Z,8.93
2018-09-29T23:18:55.392Z,5.90
2018-09-29T23:22:59.072Z,5.87
2018-09-29T23:27:05.567Z,7.53
2018-09-29T23:31:09.299Z,5.90
2018-09-29T23:35:13.063Z,6.43
2018-09-29T23:39:16.777Z,5.20
2018-09-29T23:43:20.480Z,6.17
2018-09-29T23:47:24.205Z,4.13
2018-09-29T23:51:27.942Z,7.33
2018-09-29T23:55:31.734Z,4.90
2018-09-29T23:59:35.435Z,8.87
